Time;durP1;ratioP1;P1;durP2;ratioP2;P2;SDS_P1;SDS_P2;PMS_P1;PMS_P2;Temp;Humidity;BMP_temperature;BMP_pressure;BME280_temperature;BME280_humidity;BME280_pressure;Samples;Min_cycle;Max_cycle;Signal;HPM_P1;HPM_P2
2022/10/08 00:01:16;;;;;;;5.03;2.60;;;15.30;94.40;;;;;;4915731;29;20425;-70
2022/10/08 00:03:50;;;;;;;5.80;2.63;;;15.20;94.30;;;;;;4932900;29;20796;-69
2022/10/08 00:06:31;;;;;;;5.97;3.20;;;15.20;94.40;;;;;;4919090;29;20456;-70
2022/10/08 00:09:05;;;;;;;6.03;3.00;;;15.20;94.40;;;;;;4916955;29;20604;-70
2022/10/08 00:11:37;;;;;;;5.83;3.30;;;15.20;94.40;;;;;;4915854;29;20426;-69
2022/10/08 00:14:08;;;;;;;5.67;2.90;;;15.20;94.40;;;;;;4929495;28;20456;-70
2022/10/08 00:16:38;;;;;;;6.37;3.30;;;15.20;94.40;;;;;;4916646;29;20456;-69
2022/10/08 00:19:09;;;;;;;5.50;2.70;;;15.20;94.40;;;;;;4916764;29;20413;-70
2022/10/08 00:21:41;;;;;;;7.83;3.30;;;15.20;94.40;;;;;;4917744;29;20479;-69
2022/10/08 00:24:12;;;;;;;4.33;3.17;;;15.20;94.50;;;;;;4928166;29;20425;-70
2022/10/08 00:26:43;;;;;;;7.90;3.10;;;15.20;94.50;;;;;;4918071;29;21029;-70
2022/10/08 00:29:12;;;;;;;5.70;2.70;;;15.10;94.40;;;;;;4918618;29;20487;-70
2022/10/08 00:31:40;;;;;;;5.33;2.90;;;15.10;94.50;;;;;;4920786;29;20919;-70
2022/10/08 00:34:11;;;;;;;6.07;3.60;;;15.10;94.50;;;;;;4921032;29;20490;-70
2022/10/08 00:36:46;;;;;;;10.27;3.30;;;15.10;94.50;;;;;;4933980;29;20456;-69
2022/10/08 00:39:22;;;;;;;5.53;3.00;;;15.10;94.50;;;;;;4929130;29;20444;-69
2022/10/08 00:41:53;;;;;;;5.37;3.47;;;15.10;94.50;;;;;;4916471;29;20442;-69
2022/10/08 00:44:50;;;;;;;5.27;3.57;;;15.10;94.50;;;;;;4911565;29;20459;-69
2022/10/08 00:47:36;;;;;;;6.83;3.00;;;15.10;94.50;;;;;;4918968;29;20477;-70
2022/10/08 00:50:11;;;;;;;4.70;2.50;;;15.10;94.50;;;;;;4934930;29;20420;-70
2022/10/08 00:53:00;;;;;;;5.20;2.30;;;15.10;94.50;;;;;;4929713;29;20429;-70
2022/10/08 00:55:31;;;;;;;7.60;3.17;;;15.00;94.50;;;;;;4929371;29;20462;-69
2022/10/08 00:58:06;;;;;;;6.57;3.10;;;15.00;94.50;;;;;;4900943;29;20424;-70
2022/10/08 01:00:32;;;;;;;5.90;3.40;;;15.00;94.60;;;;;;4914863;29;20412;-70
2022/10/08 01:03:02;;;;;;;5.43;3.70;;;15.00;94.60;;;;;;4931125;29;20953;-69
2022/10/08 01:06:15;;;;;;;5.13;2.80;;;15.00;94.60;;;;;;4903176;29;20449;-69
2022/10/08 01:08:52;;;;;;;4.00;2.60;;;15.00;94.60;;;;;;4896616;29;20436;-70
2022/10/08 01:11:30;;;;;;;4.33;2.80;;;15.00;94.90;;;;;;4917669;29;20448;-69
2022/10/08 01:14:13;;;;;;;6.37;2.90;;;15.00;94.60;;;;;;4920864;29;20472;-69
2022/10/08 01:16:56;;;;;;;4.10;2.53;;;15.00;94.60;;;;;;4904218;29;20459;-69
2022/10/08 01:19:55;;;;;;;5.13;2.67;;;14.90;94.60;;;;;;4924428;29;20508;-70
2022/10/08 01:22:40;;;;;;;6.03;3.03;;;14.90;94.60;;;;;;4899839;29;20413;-69
2022/10/08 01:25:36;;;;;;;6.00;3.23;;;15.00;94.70;;;;;;4916243;29;20425;-71
2022/10/08 01:28:08;;;;;;;5.10;2.80;;;14.90;94.60;;;;;;4923063;29;20450;-71
2022/10/08 01:30:38;;;;;;;5.10;3.00;;;14.90;94.60;;;;;;4921444;29;20455;-71
2022/10/08 01:33:23;;;;;;;4.93;3.20;;;14.90;94.70;;;;;;4919776;29;20419;-71
2022/10/08 01:35:56;;;;;;;5.40;2.70;;;14.90;94.70;;;;;;4918893;29;20479;-71
2022/10/08 01:38:29;;;;;;;3.90;2.67;;;14.90;94.70;;;;;;4913511;29;20479;-71
2022/10/08 01:41:01;;;;;;;11.53;3.27;;;14.90;94.70;;;;;;4937851;29;20745;-71
2022/10/08 01:43:34;;;;;;;6.10;2.73;;;14.90;94.70;;;;;;4925863;29;20431;-71
2022/10/08 01:46:13;;;;;;;5.90;2.53;;;14.90;94.70;;;;;;4937909;29;20539;-71
2022/10/08 01:48:42;;;;;;;5.33;3.10;;;14.90;94.70;;;;;;4903222;29;20451;-71
2022/10/08 01:51:23;;;;;;;6.13;2.87;;;14.90;94.70;;;;;;4905717;29;21203;-71
2022/10/08 01:53:54;;;;;;;5.23;3.10;;;14.90;94.70;;;;;;4927971;29;20432;-71
2022/10/08 01:56:26;;;;;;;3.87;2.33;;;14.90;94.90;;;;;;4919466;29;20459;-71
2022/10/08 01:59:04;;;;;;;4.33;2.33;;;14.90;94.70;;;;;;4927075;29;20922;-71
2022/10/08 02:02:02;;;;;;;4.30;2.50;;;14.90;94.80;;;;;;4937452;29;20546;-71
2022/10/08 02:04:32;;;;;;;7.30;2.60;;;14.90;94.80;;;;;;4936560;29;20525;-71
2022/10/08 02:07:08;;;;;;;4.17;3.20;;;14.90;94.80;;;;;;4921605;29;20526;-71
2022/10/08 02:09:40;;;;;;;8.10;2.47;;;14.90;94.80;;;;;;4936494;29;20416;-71
2022/10/08 02:12:08;;;;;;;3.93;2.43;;;14.80;94.80;;;;;;4938254;29;20781;-71
2022/10/08 02:14:42;;;;;;;8.63;3.10;;;14.80;94.80;;;;;;4904855;29;20484;-71
2022/10/08 02:17:47;;;;;;;6.67;3.30;;;14.80;94.80;;;;;;4918114;29;20451;-71
2022/10/08 02:20:33;;;;;;;7.13;3.13;;;14.80;94.80;;;;;;4919245;29;20465;-72
2022/10/08 02:23:16;;;;;;;6.40;3.40;;;14.80;94.80;;;;;;4918925;29;20516;-71
2022/10/08 02:25:52;;;;;;;6.13;3.20;;;14.80;94.90;;;;;;4912824;29;20466;-71
2022/10/08 02:28:50;;;;;;;5.00;2.50;;;14.80;94.90;;;;;;4923813;29;20443;-71
2022/10/08 02:31:36;;;;;;;5.90;3.00;;;14.70;94.90;;;;;;4933927;29;20552;-72
2022/10/08 02:34:17;;;;;;;4.63;2.53;;;14.80;95.00;;;;;;4922568;29;20455;-71
2022/10/08 02:36:50;;;;;;;5.33;2.43;;;14.80;95.00;;;;;;4924291;29;20451;-71
2022/10/08 02:39:27;;;;;;;4.13;2.50;;;14.70;94.90;;;;;;4920716;29;20618;-71
2022/10/08 02:41:59;;;;;;;4.73;3.37;;;14.70;95.00;;;;;;4928571;29;20929;-71
2022/10/08 02:44:27;;;;;;;4.23;2.07;;;14.70;95.00;;;;;;4936368;29;20427;-71
2022/10/08 02:46:59;;;;;;;5.80;2.90;;;14.70;94.90;;;;;;4911533;29;20491;-71
2022/10/08 02:49:39;;;;;;;5.50;2.30;;;14.70;95.00;;;;;;4907500;29;20956;-71
2022/10/08 02:52:12;;;;;;;5.03;2.70;;;14.70;95.00;;;;;;4936857;28;20431;-72
2022/10/08 02:54:46;;;;;;;4.70;2.20;;;14.70;95.00;;;;;;4901628;29;20561;-72
2022/10/08 02:57:28;;;;;;;8.17;2.37;;;14.70;95.00;;;;;;4917681;29;20453;-72
2022/10/08 02:59:57;;;;;;;4.57;2.23;;;14.70;95.00;;;;;;4931214;29;20455;-71
2022/10/08 03:02:33;;;;;;;4.27;2.30;;;14.70;95.00;;;;;;4935726;29;20496;-71
2022/10/08 03:05:08;;;;;;;4.83;2.57;;;14.70;95.00;;;;;;4901601;29;20789;-71
2022/10/08 03:07:34;;;;;;;6.67;3.23;;;14.70;95.00;;;;;;4914518;29;20868;-71
2022/10/08 03:10:07;;;;;;;7.17;2.77;;;14.70;95.10;;;;;;4935658;29;20448;-71
2022/10/08 03:12:41;;;;;;;4.40;2.20;;;14.70;95.10;;;;;;4920722;29;20475;-71
2022/10/08 03:15:10;;;;;;;6.30;2.57;;;14.70;95.10;;;;;;4935879;29;20495;-71
2022/10/08 03:17:43;;;;;;;3.13;2.20;;;14.70;95.10;;;;;;4919246;29;20448;-71
2022/10/08 03:20:10;;;;;;;7.43;2.50;;;14.70;95.10;;;;;;4933037;29;20442;-71
2022/10/08 03:22:39;;;;;;;5.47;2.40;;;14.70;95.20;;;;;;4919855;29;20984;-71
2022/10/08 03:25:08;;;;;;;6.10;2.60;;;14.70;95.30;;;;;;4936458;29;20475;-72
2022/10/08 03:27:36;;;;;;;3.97;2.30;;;14.70;95.30;;;;;;4921007;29;20568;-72
2022/10/08 03:30:06;;;;;;;5.53;2.70;;;14.70;95.40;;;;;;4927348;29;20453;-73
2022/10/08 03:32:32;;;;;;;6.53;2.47;;;14.70;95.40;;;;;;4918025;29;20527;-71
2022/10/08 03:35:00;;;;;;;8.20;2.77;;;14.70;95.50;;;;;;4901681;29;20563;-72
2022/10/08 03:37:29;;;;;;;4.70;2.60;;;14.70;95.50;;;;;;4916756;29;20456;-72
2022/10/08 03:39:55;;;;;;;5.33;3.00;;;14.60;95.60;;;;;;4924511;29;20509;-71
2022/10/08 03:42:20;;;;;;;5.57;2.17;;;14.70;95.60;;;;;;4919984;29;20442;-72
2022/10/08 03:44:46;;;;;;;4.50;2.60;;;14.60;95.60;;;;;;4934808;29;20443;-72
2022/10/08 03:47:13;;;;;;;5.60;2.70;;;14.60;95.60;;;;;;4936383;29;20452;-72
2022/10/08 03:49:44;;;;;;;4.10;2.50;;;14.70;95.70;;;;;;4919362;29;20515;-72
2022/10/08 03:52:21;;;;;;;9.93;2.90;;;14.60;95.70;;;;;;4924764;29;20612;-72
2022/10/08 03:54:49;;;;;;;7.63;2.70;;;14.70;95.80;;;;;;4917748;29;20564;-72
2022/10/08 03:57:17;;;;;;;5.13;2.40;;;14.60;95.90;;;;;;4933436;29;20487;-72
2022/10/08 03:59:43;;;;;;;4.10;2.50;;;14.70;95.90;;;;;;4929432;29;20181;-72
2022/10/08 04:02:09;;;;;;;5.00;2.80;;;14.70;95.90;;;;;;4915048;29;20432;-72
2022/10/08 04:04:38;;;;;;;7.40;2.73;;;14.60;95.90;;;;;;4926394;29;20275;-72
2022/10/08 04:07:18;;;;;;;5.17;2.60;;;14.60;96.00;;;;;;4914862;29;20821;-72
2022/10/08 04:09:44;;;;;;;6.87;4.40;;;14.60;96.00;;;;;;4936243;29;20958;-72
2022/10/08 04:12:12;;;;;;;4.33;2.10;;;14.60;96.00;;;;;;4936175;29;20935;-72
2022/10/08 04:14:38;;;;;;;5.93;2.57;;;14.60;96.10;;;;;;4919167;29;20463;-72
2022/10/08 04:17:04;;;;;;;4.70;2.20;;;14.60;96.10;;;;;;4919131;29;20205;-72
2022/10/08 04:19:30;;;;;;;4.33;2.00;;;14.60;96.20;;;;;;4924833;29;20435;-72
2022/10/08 04:21:58;;;;;;;5.30;2.10;;;14.60;96.20;;;;;;4935893;29;20415;-72
2022/10/08 04:24:24;;;;;;;4.40;2.23;;;14.60;96.30;;;;;;4928611;29;20799;-72
2022/10/08 04:26:50;;;;;;;3.70;1.90;;;14.60;96.40;;;;;;4915624;29;20583;-72
2022/10/08 04:29:18;;;;;;;3.93;2.20;;;14.60;96.50;;;;;;4916062;29;20772;-72
2022/10/08 04:31:44;;;;;;;4.10;1.90;;;14.60;96.60;;;;;;4915591;29;20416;-72
2022/10/08 04:34:13;;;;;;;3.53;1.93;;;14.60;96.70;;;;;;4911129;29;20661;-72
2022/10/08 04:36:39;;;;;;;5.70;2.40;;;14.60;96.70;;;;;;4915748;29;20440;-72
2022/10/08 04:39:07;;;;;;;4.67;2.40;;;14.60;96.80;;;;;;4934342;29;20444;-72
2022/10/08 04:41:36;;;;;;;4.93;2.10;;;14.60;96.90;;;;;;4934911;29;20460;-72
2022/10/08 04:44:04;;;;;;;4.13;2.20;;;14.60;97.30;;;;;;4938516;29;20424;-72
2022/10/08 04:46:30;;;;;;;4.23;2.33;;;14.60;97.10;;;;;;4933467;29;20477;-72
2022/10/08 04:48:56;;;;;;;6.60;2.53;;;14.60;97.20;;;;;;4933287;29;20460;-72
2022/10/08 04:51:24;;;;;;;4.33;2.13;;;14.60;97.30;;;;;;4929593;29;20463;-72
2022/10/08 04:53:54;;;;;;;6.60;1.90;;;14.60;97.30;;;;;;4903750;29;20441;-72
2022/10/08 04:56:26;;;;;;;6.50;2.80;;;14.60;97.40;;;;;;4935381;29;20460;-72
2022/10/08 04:58:56;;;;;;;4.70;1.97;;;14.60;97.40;;;;;;4917756;29;20773;-72
2022/10/08 05:01:29;;;;;;;3.73;2.00;;;14.60;97.40;;;;;;4934261;29;20479;-72
2022/10/08 05:03:59;;;;;;;3.90;2.10;;;14.60;97.40;;;;;;4928654;29;20443;-72
2022/10/08 05:06:27;;;;;;;3.50;2.27;;;14.60;97.40;;;;;;4920513;29;20802;-72
2022/10/08 05:08:56;;;;;;;5.83;2.50;;;14.60;97.40;;;;;;4930620;29;20540;-72
2022/10/08 05:11:27;;;;;;;3.40;1.90;;;14.60;97.40;;;;;;4948962;29;20445;-72
2022/10/08 05:13:55;;;;;;;6.80;2.20;;;14.60;97.40;;;;;;4921111;29;20455;-72
2022/10/08 05:16:39;;;;;;;4.10;1.93;;;14.60;97.40;;;;;;4916097;29;20999;-72
2022/10/08 05:19:07;;;;;;;3.50;2.17;;;14.60;97.40;;;;;;4899480;29;20413;-72
2022/10/08 05:21:33;;;;;;;4.40;2.27;;;14.50;97.30;;;;;;4915751;29;20420;-72
2022/10/08 05:24:05;;;;;;;4.10;1.80;;;14.60;97.40;;;;;;4913862;29;20425;-72
2022/10/08 05:26:35;;;;;;;4.07;2.07;;;14.60;97.30;;;;;;4927944;29;20463;-72
2022/10/08 05:29:01;;;;;;;6.30;1.87;;;14.60;97.40;;;;;;4933464;29;20423;-72
2022/10/08 05:31:29;;;;;;;5.17;1.90;;;14.60;97.40;;;;;;4920894;29;20488;-72
2022/10/08 05:33:58;;;;;;;3.07;2.17;;;14.50;97.40;;;;;;4919774;29;20413;-72
2022/10/08 05:36:27;;;;;;;3.60;1.83;;;14.50;97.40;;;;;;4933319;29;20504;-72
2022/10/08 05:38:55;;;;;;;3.53;2.43;;;14.50;97.40;;;;;;4929797;29;20786;-72
2022/10/08 05:41:23;;;;;;;3.73;2.33;;;14.60;97.50;;;;;;4883650;29;20412;-72
2022/10/08 05:43:54;;;;;;;4.57;2.17;;;14.50;97.50;;;;;;4913648;29;20437;-72
2022/10/08 05:46:23;;;;;;;3.40;2.37;;;14.50;97.50;;;;;;4914823;29;20464;-72
2022/10/08 05:48:57;;;;;;;8.27;2.07;;;14.50;97.50;;;;;;4931499;29;20466;-72
2022/10/08 05:51:37;;;;;;;4.53;2.00;;;14.50;97.50;;;;;;4919314;29;20471;-72
2022/10/08 05:54:04;;;;;;;3.80;1.80;;;14.50;97.50;;;;;;4928933;29;20818;-72
2022/10/08 05:56:38;;;;;;;3.07;2.40;;;14.50;97.60;;;;;;4923754;29;20453;-72
2022/10/08 05:59:14;;;;;;;4.73;2.10;;;14.50;97.70;;;;;;4933740;29;20754;-72
2022/10/08 06:01:43;;;;;;;2.87;2.10;;;14.50;97.70;;;;;;4929438;29;20428;-72
2022/10/08 06:04:12;;;;;;;4.20;2.13;;;14.50;97.80;;;;;;4911589;29;20418;-72
2022/10/08 06:06:41;;;;;;;5.43;2.13;;;14.50;97.80;;;;;;4917751;29;20828;-72
2022/10/08 06:09:12;;;;;;;3.97;2.10;;;14.50;97.80;;;;;;4917347;29;20949;-72
2022/10/08 06:11:39;;;;;;;2.40;1.77;;;14.50;98.30;;;;;;4917869;29;20785;-72
2022/10/08 06:14:10;;;;;;;4.80;2.63;;;14.50;98.00;;;;;;4909645;29;20469;-72
2022/10/08 06:16:37;;;;;;;4.90;2.10;;;14.50;98.00;;;;;;4927401;29;20473;-72
2022/10/08 06:19:07;;;;;;;6.63;3.00;;;14.50;98.10;;;;;;4926609;29;20428;-72
2022/10/08 06:21:34;;;;;;;2.93;2.00;;;14.50;98.10;;;;;;4915625;29;20466;-72
2022/10/08 06:24:05;;;;;;;3.50;2.13;;;14.50;98.10;;;;;;4919599;29;20420;-72
2022/10/08 06:26:35;;;;;;;5.17;2.33;;;14.50;98.20;;;;;;4928528;29;20473;-72
2022/10/08 06:29:01;;;;;;;3.00;2.30;;;14.50;98.10;;;;;;4921907;29;20455;-72
2022/10/08 06:31:49;;;;;;;4.07;2.30;;;14.50;98.20;;;;;;4916918;29;20432;-72
2022/10/08 06:34:18;;;;;;;3.03;2.50;;;14.50;98.30;;;;;;4920107;29;20513;-72
2022/10/08 06:36:44;;;;;;;5.83;2.60;;;14.50;98.40;;;;;;4917847;29;20466;-72
2022/10/08 06:39:15;;;;;;;4.90;2.67;;;14.50;98.50;;;;;;4935007;29;20441;-72
2022/10/08 06:41:44;;;;;;;5.77;2.20;;;14.50;98.60;;;;;;4936574;29;20422;-72
2022/10/08 06:44:12;;;;;;;3.23;2.40;;;14.50;98.70;;;;;;4917665;29;20435;-72
2022/10/08 06:46:41;;;;;;;4.43;2.50;;;14.50;98.80;;;;;;4917739;29;20978;-72
2022/10/08 06:49:12;;;;;;;5.90;3.10;;;14.50;98.80;;;;;;4935921;29;20427;-72
2022/10/08 06:51:43;;;;;;;5.53;3.23;;;14.50;98.90;;;;;;4914059;29;20444;-72
2022/10/08 06:54:09;;;;;;;3.53;2.90;;;14.50;99.00;;;;;;4901925;29;20445;-72
2022/10/08 06:56:38;;;;;;;8.30;4.00;;;14.50;99.10;;;;;;4892291;29;20506;-72
2022/10/08 06:59:05;;;;;;;4.43;2.77;;;14.50;99.10;;;;;;4936388;29;20880;-72
2022/10/08 07:01:31;;;;;;;4.73;3.20;;;14.50;99.10;;;;;;4918023;29;20459;-72
2022/10/08 07:04:01;;;;;;;4.70;3.50;;;14.50;99.20;;;;;;4908392;29;20862;-72
2022/10/08 07:06:30;;;;;;;6.53;4.00;;;14.50;99.20;;;;;;4922376;29;20813;-72
2022/10/08 07:08:59;;;;;;;4.90;3.10;;;14.50;99.20;;;;;;4937003;29;20808;-72
2022/10/08 07:11:26;;;;;;;5.23;3.70;;;14.50;99.20;;;;;;4934738;29;20826;-72
2022/10/08 07:13:54;;;;;;;7.43;3.50;;;14.50;99.30;;;;;;4935543;29;20419;-72
2022/10/08 07:16:22;;;;;;;3.83;3.40;;;14.50;99.30;;;;;;4934674;29;20543;-73
2022/10/08 07:18:52;;;;;;;4.23;3.50;;;14.50;99.30;;;;;;4935868;29;20423;-73
2022/10/08 07:21:22;;;;;;;8.03;4.90;;;14.40;99.30;;;;;;4933567;29;20471;-73
2022/10/08 07:23:50;;;;;;;4.83;3.50;;;14.50;99.40;;;;;;4936089;29;20435;-73
2022/10/08 07:26:22;;;;;;;5.50;4.20;;;14.50;99.40;;;;;;4923942;29;20479;-73
2022/10/08 07:28:51;;;;;;;6.00;4.10;;;14.50;99.50;;;;;;4917780;29;20486;-73
2022/10/08 07:31:21;;;;;;;6.50;4.57;;;14.40;99.50;;;;;;4927408;29;20446;-73
2022/10/08 07:33:47;;;;;;;6.70;3.83;;;14.50;99.60;;;;;;4935116;29;20504;-73
2022/10/08 07:36:16;;;;;;;7.90;4.77;;;14.50;99.60;;;;;;4901666;29;20871;-73
2022/10/08 07:38:43;;;;;;;7.30;5.07;;;14.50;99.60;;;;;;4917612;29;20856;-73
2022/10/08 07:41:15;;;;;;;10.07;5.90;;;14.50;99.60;;;;;;4921254;29;20480;-73
2022/10/08 07:43:53;;;;;;;8.40;4.60;;;14.50;99.60;;;;;;4925235;29;20914;-73
2022/10/08 07:46:20;;;;;;;6.97;5.37;;;14.50;99.60;;;;;;4917206;29;20490;-73
2022/10/08 07:48:49;;;;;;;8.30;5.23;;;14.50;99.60;;;;;;4909186;29;20957;-73
2022/10/08 07:51:19;;;;;;;7.40;4.60;;;14.50;99.70;;;;;;4922039;29;20794;-73
2022/10/08 07:53:48;;;;;;;9.30;5.50;;;14.50;99.70;;;;;;4912570;29;20440;-73
2022/10/08 07:56:16;;;;;;;8.37;5.17;;;14.50;99.70;;;;;;4934528;29;20479;-73
2022/10/08 07:58:42;;;;;;;7.77;5.40;;;14.50;99.80;;;;;;4925729;29;20933;-73
2022/10/08 08:01:11;;;;;;;9.20;6.03;;;14.50;99.90;;;;;;4915749;29;20401;-73
2022/10/08 08:04:06;;;;;;;8.80;5.37;;;14.50;99.90;;;;;;4925010;29;20456;-73
2022/10/08 08:06:37;;;;;;;9.40;6.30;;;14.50;99.90;;;;;;4935135;29;20439;-73
2022/10/08 08:09:03;;;;;;;7.57;5.43;;;14.50;99.90;;;;;;4908872;29;20517;-73
2022/10/08 08:11:31;;;;;;;7.33;5.90;;;14.50;99.90;;;;;;4933422;29;20542;-73
2022/10/08 08:14:00;;;;;;;9.40;6.60;;;14.50;99.90;;;;;;4916237;29;20440;-73
2022/10/08 08:16:28;;;;;;;14.37;6.57;;;14.50;99.90;;;;;;4920185;29;20637;-74
2022/10/08 08:18:58;;;;;;;9.93;7.53;;;14.50;99.90;;;;;;4937939;29;20427;-76
2022/10/08 08:21:30;;;;;;;8.50;7.13;;;14.50;99.90;;;;;;4930953;29;20519;-73
2022/10/08 08:24:01;;;;;;;9.00;6.37;;;14.50;99.90;;;;;;4916041;29;20415;-74
2022/10/08 08:26:31;;;;;;;9.30;6.37;;;14.50;99.90;;;;;;4928039;29;20494;-73
2022/10/08 08:29:08;;;;;;;9.53;7.03;;;14.50;99.90;;;;;;4934823;29;20748;-77
2022/10/08 08:31:42;;;;;;;9.17;5.90;;;14.60;99.90;;;;;;4920187;29;20976;-74
2022/10/08 08:34:13;;;;;;;11.27;6.70;;;14.60;99.90;;;;;;4935573;29;20494;-75
2022/10/08 08:36:44;;;;;;;9.70;6.83;;;14.60;99.90;;;;;;4950514;29;20443;-72
2022/10/08 08:39:24;;;;;;;8.87;6.60;;;14.60;99.90;;;;;;4931757;29;20967;-72
2022/10/08 08:41:59;;;;;;;10.97;6.77;;;14.60;99.90;;;;;;4928542;29;20447;-73
2022/10/08 08:44:31;;;;;;;9.57;7.00;;;14.60;99.90;;;;;;4933724;29;20434;-74
2022/10/08 08:47:03;;;;;;;10.67;6.07;;;14.60;99.90;;;;;;4917238;29;20512;-74
2022/10/08 08:49:41;;;;;;;8.20;6.40;;;14.60;99.90;;;;;;4920862;29;21007;-74
2022/10/08 08:52:15;;;;;;;9.67;7.27;;;14.60;99.90;;;;;;4934752;29;20763;-74
2022/10/08 08:54:49;;;;;;;9.77;6.90;;;14.70;99.70;;;;;;4934944;29;20478;-74
2022/10/08 08:57:21;;;;;;;8.70;6.47;;;14.70;99.70;;;;;;4935111;29;20491;-74
2022/10/08 08:59:50;;;;;;;7.50;6.43;;;14.70;99.60;;;;;;4935074;29;20528;-71
2022/10/08 09:02:37;;;;;;;9.27;6.63;;;14.70;99.60;;;;;;4919389;29;20468;-73
2022/10/08 09:05:10;;;;;;;7.10;6.37;;;14.70;99.60;;;;;;4914289;29;20444;-75
2022/10/08 09:07:45;;;;;;;7.70;6.23;;;14.70;99.60;;;;;;4916796;29;20444;-74
2022/10/08 09:10:17;;;;;;;9.27;6.70;;;14.70;99.70;;;;;;4916216;29;20415;-75
2022/10/08 09:12:47;;;;;;;10.10;7.23;;;14.70;99.70;;;;;;4915104;29;20868;-74
2022/10/08 09:15:25;;;;;;;8.27;5.67;;;14.70;99.70;;;;;;4898091;29;20461;-74
2022/10/08 09:17:52;;;;;;;12.90;7.27;;;14.80;99.70;;;;;;4920829;29;20905;-74
2022/10/08 09:20:25;;;;;;;9.00;7.10;;;14.80;99.70;;;;;;4932745;29;20770;-75
2022/10/08 09:22:52;;;;;;;9.70;6.37;;;14.80;99.80;;;;;;4915489;29;20425;-74
2022/10/08 09:25:23;;;;;;;8.23;6.63;;;14.80;99.70;;;;;;4914896;29;20900;-75
2022/10/08 09:27:55;;;;;;;9.20;6.80;;;14.80;99.70;;;;;;4913795;29;20449;-75
2022/10/08 09:30:29;;;;;;;9.17;6.60;;;14.80;99.60;;;;;;4918659;29;20546;-75
2022/10/08 09:33:00;;;;;;;8.90;7.13;;;14.90;99.70;;;;;;4940430;23;20553;-72
2022/10/08 09:35:27;;;;;;;12.80;6.30;;;14.90;99.70;;;;;;4893037;29;20858;-72
2022/10/08 09:37:55;;;;;;;11.60;6.70;;;14.90;99.70;;;;;;4895010;29;20458;-72
2022/10/08 09:40:25;;;;;;;8.43;6.30;;;14.90;99.70;;;;;;4879900;29;20920;-72
2022/10/08 09:43:10;;;;;;;8.57;6.23;;;14.90;99.70;;;;;;4895534;29;20426;-72
2022/10/08 09:45:42;;;;;;;10.00;5.63;;;14.90;99.70;;;;;;4864116;29;20433;-72
2022/10/08 09:48:15;;;;;;;9.57;5.73;;;14.90;99.60;;;;;;4895712;29;20938;-72
2022/10/08 09:51:13;;;;;;;7.80;5.70;;;14.90;99.50;;;;;;4879653;29;20439;-72
2022/10/08 09:53:45;;;;;;;8.13;6.03;;;14.90;99.50;;;;;;4891432;29;20830;-72
2022/10/08 09:56:26;;;;;;;6.33;5.23;;;14.90;99.40;;;;;;4896947;29;20589;-72
2022/10/08 09:58:58;;;;;;;9.80;6.07;;;15.00;99.40;;;;;;4899039;29;20443;-72
2022/10/08 10:01:30;;;;;;;8.03;5.70;;;14.90;99.30;;;;;;4898773;29;20516;-72
2022/10/08 10:03:57;;;;;;;8.37;5.47;;;15.00;99.20;;;;;;4904977;29;20870;-72
2022/10/08 10:06:38;;;;;;;7.53;5.20;;;15.00;99.50;;;;;;4880230;29;20469;-72
2022/10/08 10:09:09;;;;;;;6.67;4.47;;;15.00;99.10;;;;;;4897282;29;20461;-72
2022/10/08 10:12:22;;;;;;;7.93;5.03;;;15.00;99.10;;;;;;4897356;29;20423;-72
2022/10/08 10:15:00;;;;;;;7.90;4.93;;;15.00;99.00;;;;;;4879560;29;20473;-72
2022/10/08 10:17:46;;;;;;;7.57;4.87;;;15.00;99.00;;;;;;4865151;29;20468;-72
2022/10/08 10:20:34;;;;;;;6.30;4.37;;;15.00;98.90;;;;;;4884446;29;20528;-73
2022/10/08 10:23:19;;;;;;;5.40;4.50;;;15.00;98.90;;;;;;4883257;29;20496;-71
2022/10/08 10:25:59;;;;;;;6.40;4.80;;;15.10;98.90;;;;;;4898752;29;21094;-74
2022/10/08 10:29:18;;;;;;;7.37;4.30;;;15.10;98.80;;;;;;4899810;29;20794;-75
2022/10/08 10:32:10;;;;;;;7.27;4.77;;;15.10;98.70;;;;;;4898180;29;20443;-72
2022/10/08 10:34:42;;;;;;;6.67;4.10;;;15.10;98.70;;;;;;4899318;29;20563;-73
2022/10/08 10:37:25;;;;;;;5.60;3.60;;;15.10;98.70;;;;;;4899364;29;20487;-73
2022/10/08 10:40:17;;;;;;;7.07;4.23;;;15.10;98.60;;;;;;4909812;29;20566;-73
2022/10/08 10:42:54;;;;;;;7.33;4.70;;;15.10;98.50;;;;;;4898693;29;20788;-72
2022/10/08 10:45:26;;;;;;;5.13;3.80;;;15.20;98.40;;;;;;4897799;29;20984;-73
2022/10/08 10:47:53;;;;;;;8.70;3.80;;;15.20;98.30;;;;;;4897862;29;20919;-73
2022/10/08 10:51:07;;;;;;;10.37;4.70;;;15.10;98.10;;;;;;4898166;29;20768;-73
2022/10/08 10:53:41;;;;;;;5.77;3.37;;;15.10;98.00;;;;;;4896076;29;20453;-71
2022/10/08 10:56:22;;;;;;;5.93;4.17;;;15.20;98.00;;;;;;4897458;29;20532;-73
2022/10/08 10:59:20;;;;;;;6.20;3.87;;;15.10;97.90;;;;;;4882500;29;20573;-73
2022/10/08 11:02:11;;;;;;;8.23;4.20;;;15.20;97.80;;;;;;4879424;29;20471;-75
2022/10/08 11:04:58;;;;;;;7.10;3.60;;;15.20;97.70;;;;;;4882364;29;20438;-74
2022/10/08 11:07:42;;;;;;;5.50;3.30;;;15.10;97.60;;;;;;4898164;29;20804;-74
2022/10/08 11:10:51;;;;;;;7.10;3.50;;;15.20;97.60;;;;;;4896962;29;20460;-76
2022/10/08 11:13:58;;;;;;;5.63;3.10;;;15.20;97.60;;;;;;4879421;29;20429;-76
2022/10/08 11:16:49;;;;;;;4.23;3.23;;;15.20;97.50;;;;;;4878569;29;20908;-74
2022/10/08 11:19:24;;;;;;;5.37;3.17;;;15.20;97.40;;;;;;4882482;29;20422;-74
2022/10/08 11:22:12;;;;;;;4.40;3.07;;;15.20;97.40;;;;;;4899383;29;20427;-75
2022/10/08 11:25:18;;;;;;;4.73;2.33;;;15.20;97.20;;;;;;4897602;29;20801;-75
2022/10/08 11:28:09;;;;;;;5.03;2.57;;;15.20;97.20;;;;;;4897430;29;20458;-76
2022/10/08 11:30:44;;;;;;;6.00;2.30;;;15.20;97.00;;;;;;4895179;29;20897;-72
2022/10/08 11:33:14;;;;;;;3.57;2.23;;;15.30;96.90;;;;;;4896918;29;20525;-73
2022/10/08 11:36:05;;;;;;;4.07;2.10;;;15.30;96.90;;;;;;4896044;29;20963;-74
2022/10/08 11:38:43;;;;;;;4.37;1.90;;;15.30;96.60;;;;;;4882041;29;20747;-73
2022/10/08 11:41:21;;;;;;;3.60;2.10;;;15.30;96.30;;;;;;4919595;29;20436;-73
2022/10/08 11:43:54;;;;;;;4.93;2.30;;;15.30;96.20;;;;;;4915466;29;20458;-73
2022/10/08 11:46:27;;;;;;;3.53;2.50;;;15.30;96.20;;;;;;4881609;29;20465;-73
2022/10/08 11:49:00;;;;;;;5.17;2.33;;;15.30;96.20;;;;;;4897188;29;20490;-73
2022/10/08 11:51:31;;;;;;;4.30;1.67;;;15.30;96.20;;;;;;4897431;29;20424;-73
2022/10/08 11:54:33;;;;;;;8.30;2.50;;;15.30;96.00;;;;;;4884400;29;20441;-73
2022/10/08 11:57:18;;;;;;;5.13;1.90;;;15.30;95.90;;;;;;4898307;29;20481;-73
2022/10/08 11:59:56;;;;;;;3.03;1.50;;;15.30;95.90;;;;;;4896739;29;20500;-73
2022/10/08 12:02:44;;;;;;;1.97;1.60;;;15.30;95.70;;;;;;4897037;29;20956;-73
2022/10/08 12:05:22;;;;;;;4.77;1.60;;;15.40;95.60;;;;;;4881693;29;20469;-73
2022/10/08 12:07:53;;;;;;;3.20;1.77;;;15.40;95.50;;;;;;4900780;29;20561;-73
2022/10/08 12:10:38;;;;;;;2.60;1.80;;;15.40;95.60;;;;;;4897356;29;20433;-73
2022/10/08 12:13:08;;;;;;;3.70;1.40;;;15.40;95.60;;;;;;4895953;29;20545;-73
2022/10/08 12:15:39;;;;;;;3.47;1.60;;;15.40;95.60;;;;;;4896750;29;20997;-73
2022/10/08 12:18:24;;;;;;;1.80;1.47;;;15.40;95.60;;;;;;4897922;29;20398;-73
2022/10/08 12:21:16;;;;;;;2.83;1.70;;;15.40;95.60;;;;;;4888524;29;20434;-73
2022/10/08 12:23:44;;;;;;;1.90;1.50;;;15.40;95.60;;;;;;4896770;29;20418;-74
2022/10/08 12:26:15;;;;;;;2.97;1.40;;;15.40;95.60;;;;;;4896481;29;20513;-72
2022/10/08 12:28:43;;;;;;;3.53;1.80;;;15.40;95.50;;;;;;4896753;29;20426;-72
2022/10/08 12:31:25;;;;;;;4.10;1.40;;;15.50;95.60;;;;;;4896720;29;20497;-71
2022/10/08 12:34:21;;;;;;;4.00;1.57;;;15.50;95.60;;;;;;4896203;29;20442;-72
2022/10/08 12:37:06;;;;;;;4.00;1.50;;;15.50;95.50;;;;;;4896208;29;21246;-72
2022/10/08 12:39:43;;;;;;;1.50;1.30;;;15.50;95.40;;;;;;4878045;29;20423;-72
2022/10/08 12:42:34;;;;;;;2.90;1.20;;;15.50;95.60;;;;;;4877495;29;20471;-72
2022/10/08 12:45:21;;;;;;;4.70;2.13;;;15.50;95.30;;;;;;4902533;29;20419;-72
2022/10/08 12:47:50;;;;;;;5.87;1.43;;;15.50;95.20;;;;;;4880844;29;20493;-72
2022/10/08 12:50:36;;;;;;;4.93;1.70;;;15.60;95.20;;;;;;4895946;29;20449;-72
2022/10/08 12:53:05;;;;;;;3.20;1.47;;;15.60;95.10;;;;;;4897070;29;20806;-72
2022/10/08 12:55:51;;;;;;;3.63;1.40;;;15.60;95.10;;;;;;4880636;29;20473;-72
2022/10/08 12:58:24;;;;;;;1.90;1.20;;;15.60;95.10;;;;;;4865407;29;20487;-72
2022/10/08 13:00:58;;;;;;;2.60;1.97;;;15.60;95.20;;;;;;4895808;29;20883;-72
2022/10/08 13:03:25;;;;;;;1.70;1.20;;;15.60;95.10;;;;;;4895640;29;21128;-72
2022/10/08 13:05:56;;;;;;;2.63;1.27;;;15.60;95.10;;;;;;4885137;29;20466;-72
2022/10/08 13:08:36;;;;;;;5.37;1.50;;;15.60;95.10;;;;;;4899023;29;20440;-72
2022/10/08 13:11:11;;;;;;;2.83;1.27;;;15.70;95.10;;;;;;4895175;29;20897;-72
2022/10/08 13:13:37;;;;;;;1.83;1.20;;;15.70;95.00;;;;;;4880122;29;20445;-72
2022/10/08 13:16:09;;;;;;;3.10;1.80;;;15.70;95.00;;;;;;4892556;29;20503;-72
2022/10/08 13:18:36;;;;;;;4.70;1.47;;;15.70;94.90;;;;;;4878894;29;20445;-72
2022/10/08 13:21:25;;;;;;;3.80;1.47;;;15.70;94.80;;;;;;4910022;29;20462;-72
2022/10/08 13:23:51;;;;;;;4.80;1.70;;;15.70;94.70;;;;;;4880480;29;20427;-72